sensor_id;sensor_type;location;lat;lon;timestamp;P1;durP1;ratioP1;P2;durP2;ratioP2
52434;SDS011;38354;52.892;6.148;2023-02-11T05:02:23;52.92;;;18.38;;
52434;SDS011;38354;52.892;6.148;2023-02-11T05:04:48;56.55;;;17.92;;
52434;SDS011;38354;52.892;6.148;2023-02-11T05:07:14;60.20;;;20.30;;
52434;SDS011;38354;52.892;6.148;2023-02-11T05:09:39;60.97;;;20.33;;
52434;SDS011;38354;52.892;6.148;2023-02-11T05:12:05;62.75;;;20.10;;
52434;SDS011;38354;52.892;6.148;2023-02-11T05:14:31;55.03;;;20.50;;
52434;SDS011;38354;52.892;6.148;2023-02-11T05:16:57;61.00;;;19.80;;
52434;SDS011;38354;52.892;6.148;2023-02-11T05:19:23;56.40;;;19.60;;
52434;SDS011;38354;52.892;6.148;2023-02-11T05:21:48;67.07;;;20.70;;
52434;SDS011;38354;52.892;6.148;2023-02-11T05:24:14;61.85;;;19.60;;
52434;SDS011;38354;52.892;6.148;2023-02-11T05:26:40;56.90;;;19.70;;
52434;SDS011;38354;52.892;6.148;2023-02-11T05:29:05;67.82;;;20.60;;
52434;SDS011;38354;52.892;6.148;2023-02-11T05:31:31;67.22;;;21.50;;
52434;SDS011;38354;52.892;6.148;2023-02-11T05:33:57;65.82;;;20.88;;
52434;SDS011;38354;52.892;6.148;2023-02-11T05:36:23;59.75;;;20.25;;
52434;SDS011;38354;52.892;6.148;2023-02-11T05:38:48;65.82;;;19.30;;
52434;SDS011;38354;52.892;6.148;2023-02-11T05:41:15;68.53;;;23.75;;
52434;SDS011;38354;52.892;6.148;2023-02-11T05:43:41;63.13;;;21.70;;
52434;SDS011;38354;52.892;6.148;2023-02-11T05:46:07;64.47;;;22.02;;
52434;SDS011;38354;52.892;6.148;2023-02-11T05:48:32;56.95;;;21.15;;
52434;SDS011;38354;52.892;6.148;2023-02-11T05:50:59;80.78;;;26.02;;
52434;SDS011;38354;52.892;6.148;2023-02-11T05:53:24;71.90;;;24.10;;
52434;SDS011;38354;52.892;6.148;2023-02-11T05:55:50;72.65;;;23.05;;
52434;SDS011;38354;52.892;6.148;2023-02-11T05:58:15;68.78;;;23.95;;
52434;SDS011;38354;52.892;6.148;2023-02-11T06:00:41;71.20;;;23.23;;
52434;SDS011;38354;52.892;6.148;2023-02-11T06:03:07;71.43;;;25.27;;
52434;SDS011;38354;52.892;6.148;2023-02-11T06:05:33;74.97;;;24.63;;
52434;SDS011;38354;52.892;6.148;2023-02-11T06:07:58;79.53;;;24.85;;
52434;SDS011;38354;52.892;6.148;2023-02-11T06:10:24;70.78;;;24.80;;
52434;SDS011;38354;52.892;6.148;2023-02-11T06:12:50;75.68;;;25.58;;
52434;SDS011;38354;52.892;6.148;2023-02-11T06:15:15;76.68;;;26.65;;
52434;SDS011;38354;52.892;6.148;2023-02-11T06:17:41;80.18;;;25.60;;
52434;SDS011;38354;52.892;6.148;2023-02-11T06:20:07;79.93;;;24.80;;
52434;SDS011;38354;52.892;6.148;2023-02-11T06:22:34;83.18;;;26.77;;
52434;SDS011;38354;52.892;6.148;2023-02-11T06:25:00;73.82;;;26.17;;
52434;SDS011;38354;52.892;6.148;2023-02-11T06:27:26;76.53;;;25.85;;
52434;SDS011;38354;52.892;6.148;2023-02-11T06:29:52;86.07;;;28.70;;
52434;SDS011;38354;52.892;6.148;2023-02-11T06:32:17;82.95;;;27.17;;
52434;SDS011;38354;52.892;6.148;2023-02-11T06:34:44;79.53;;;26.35;;
52434;SDS011;38354;52.892;6.148;2023-02-11T06:37:10;82.65;;;26.98;;
52434;SDS011;38354;52.892;6.148;2023-02-11T06:39:35;75.60;;;28.08;;
52434;SDS011;38354;52.892;6.148;2023-02-11T06:42:01;82.25;;;29.48;;
52434;SDS011;38354;52.892;6.148;2023-02-11T06:44:27;80.13;;;28.35;;
52434;SDS011;38354;52.892;6.148;2023-02-11T06:46:53;73.85;;;25.33;;
52434;SDS011;38354;52.892;6.148;2023-02-11T06:49:18;71.28;;;25.13;;
52434;SDS011;38354;52.892;6.148;2023-02-11T06:51:44;84.05;;;28.70;;
52434;SDS011;38354;52.892;6.148;2023-02-11T06:54:10;78.85;;;29.17;;
52434;SDS011;38354;52.892;6.148;2023-02-11T06:56:38;88.88;;;28.33;;
52434;SDS011;38354;52.892;6.148;2023-02-11T06:59:04;75.82;;;27.60;;
52434;SDS011;38354;52.892;6.148;2023-02-11T07:01:30;70.22;;;26.17;;
52434;SDS011;38354;52.892;6.148;2023-02-11T07:03:55;76.22;;;25.55;;
52434;SDS011;38354;52.892;6.148;2023-02-11T07:06:22;91.97;;;27.58;;
52434;SDS011;38354;52.892;6.148;2023-02-11T07:08:51;78.18;;;26.83;;
52434;SDS011;38354;52.892;6.148;2023-02-11T07:11:19;81.97;;;27.95;;
52434;SDS011;38354;52.892;6.148;2023-02-11T07:13:48;96.38;;;28.83;;
52434;SDS011;38354;52.892;6.148;2023-02-11T07:16:15;84.60;;;26.17;;
52434;SDS011;38354;52.892;6.148;2023-02-11T07:18:42;86.13;;;28.92;;
52434;SDS011;38354;52.892;6.148;2023-02-11T07:21:09;88.32;;;28.75;;
52434;SDS011;38354;52.892;6.148;2023-02-11T07:23:36;83.40;;;27.83;;
52434;SDS011;38354;52.892;6.148;2023-02-11T07:26:12;85.45;;;28.52;;
52434;SDS011;38354;52.892;6.148;2023-02-11T07:28:42;80.10;;;27.70;;
52434;SDS011;38354;52.892;6.148;2023-02-11T07:31:13;86.57;;;28.80;;
52434;SDS011;38354;52.892;6.148;2023-02-11T07:33:41;88.22;;;28.25;;
52434;SDS011;38354;52.892;6.148;2023-02-11T07:36:07;80.90;;;25.45;;
52434;SDS011;38354;52.892;6.148;2023-02-11T07:38:35;83.28;;;27.30;;
52434;SDS011;38354;52.892;6.148;2023-02-11T07:41:02;84.22;;;29.27;;
52434;SDS011;38354;52.892;6.148;2023-02-11T07:43:30;77.95;;;27.35;;
52434;SDS011;38354;52.892;6.148;2023-02-11T07:45:56;79.25;;;25.60;;
52434;SDS011;38354;52.892;6.148;2023-02-11T07:48:22;79.13;;;26.33;;
52434;SDS011;38354;52.892;6.148;2023-02-11T07:50:47;77.43;;;27.30;;
52434;SDS011;38354;52.892;6.148;2023-02-11T07:53:13;82.15;;;27.90;;
52434;SDS011;38354;52.892;6.148;2023-02-11T07:55:39;82.22;;;25.98;;
52434;SDS011;38354;52.892;6.148;2023-02-11T07:58:04;71.63;;;26.08;;
52434;SDS011;38354;52.892;6.148;2023-02-11T08:00:30;73.13;;;28.02;;
52434;SDS011;38354;52.892;6.148;2023-02-11T08:02:56;74.80;;;25.80;;
52434;SDS011;38354;52.892;6.148;2023-02-11T08:05:22;75.85;;;26.23;;
52434;SDS011;38354;52.892;6.148;2023-02-11T08:07:51;66.72;;;23.92;;
52434;SDS011;38354;52.892;6.148;2023-02-11T08:10:17;61.88;;;24.35;;
52434;SDS011;38354;52.892;6.148;2023-02-11T08:12:43;72.53;;;25.35;;
52434;SDS011;38354;52.892;6.148;2023-02-11T08:15:09;67.50;;;24.40;;
52434;SDS011;38354;52.892;6.148;2023-02-11T08:17:35;62.00;;;22.65;;
52434;SDS011;38354;52.892;6.148;2023-02-11T08:20:01;65.55;;;25.58;;
52434;SDS011;38354;52.892;6.148;2023-02-11T08:22:32;65.47;;;24.17;;
52434;SDS011;38354;52.892;6.148;2023-02-11T08:24:59;49.78;;;20.20;;
52434;SDS011;38354;52.892;6.148;2023-02-11T08:27:25;51.83;;;21.27;;
52434;SDS011;38354;52.892;6.148;2023-02-11T08:29:51;56.40;;;20.90;;
52434;SDS011;38354;52.892;6.148;2023-02-11T08:32:17;57.13;;;21.30;;
52434;SDS011;38354;52.892;6.148;2023-02-11T08:34:43;54.33;;;21.58;;
52434;SDS011;38354;52.892;6.148;2023-02-11T08:37:09;54.65;;;22.27;;
52434;SDS011;38354;52.892;6.148;2023-02-11T08:39:34;44.95;;;17.63;;
52434;SDS011;38354;52.892;6.148;2023-02-11T08:42:00;48.20;;;19.60;;
52434;SDS011;38354;52.892;6.148;2023-02-11T08:44:26;53.65;;;19.70;;
52434;SDS011;38354;52.892;6.148;2023-02-11T08:46:52;48.08;;;19.27;;
52434;SDS011;38354;52.892;6.148;2023-02-11T08:49:17;51.00;;;19.80;;
52434;SDS011;38354;52.892;6.148;2023-02-11T08:51:43;42.55;;;19.58;;
52434;SDS011;38354;52.892;6.148;2023-02-11T08:54:10;43.20;;;17.95;;
52434;SDS011;38354;52.892;6.148;2023-02-11T08:56:36;44.80;;;17.98;;
52434;SDS011;38354;52.892;6.148;2023-02-11T08:59:03;45.08;;;17.65;;
52434;SDS011;38354;52.892;6.148;2023-02-11T09:01:30;40.80;;;16.63;;
52434;SDS011;38354;52.892;6.148;2023-02-11T09:03:57;43.75;;;18.13;;
52434;SDS011;38354;52.892;6.148;2023-02-11T09:06:24;40.47;;;15.77;;
52434;SDS011;38354;52.892;6.148;2023-02-11T09:08:51;42.65;;;17.00;;
52434;SDS011;38354;52.892;6.148;2023-02-11T09:11:20;36.92;;;15.32;;
52434;SDS011;38354;52.892;6.148;2023-02-11T09:13:51;42.92;;;16.00;;
52434;SDS011;38354;52.892;6.148;2023-02-11T09:16:21;36.42;;;16.52;;
52434;SDS011;38354;52.892;6.148;2023-02-11T09:18:51;37.40;;;15.70;;
52434;SDS011;38354;52.892;6.148;2023-02-11T09:21:18;38.70;;;15.20;;
52434;SDS011;38354;52.892;6.148;2023-02-11T09:23:44;41.97;;;16.77;;
52434;SDS011;38354;52.892;6.148;2023-02-11T09:26:33;39.92;;;15.25;;
52434;SDS011;38354;52.892;6.148;2023-02-11T09:28:59;33.92;;;15.38;;
52434;SDS011;38354;52.892;6.148;2023-02-11T09:31:25;35.25;;;14.45;;
52434;SDS011;38354;52.892;6.148;2023-02-11T09:33:53;32.58;;;14.50;;
52434;SDS011;38354;52.892;6.148;2023-02-11T09:36:22;42.50;;;14.60;;
52434;SDS011;38354;52.892;6.148;2023-02-11T09:38:49;30.38;;;13.40;;
52434;SDS011;38354;52.892;6.148;2023-02-11T09:41:24;31.75;;;14.60;;
52434;SDS011;38354;52.892;6.148;2023-02-11T09:44:17;35.28;;;13.82;;
52434;SDS011;38354;52.892;6.148;2023-02-11T09:46:47;25.58;;;13.13;;
52434;SDS011;38354;52.892;6.148;2023-02-11T09:49:34;37.15;;;13.80;;
52434;SDS011;38354;52.892;6.148;2023-02-11T09:52:07;30.83;;;13.75;;
52434;SDS011;38354;52.892;6.148;2023-02-11T09:54:38;30.27;;;13.18;;
52434;SDS011;38354;52.892;6.148;2023-02-11T09:57:17;28.55;;;12.93;;
52434;SDS011;38354;52.892;6.148;2023-02-11T09:59:43;31.70;;;13.15;;
52434;SDS011;38354;52.892;6.148;2023-02-11T10:02:12;26.30;;;12.50;;
52434;SDS011;38354;52.892;6.148;2023-02-11T10:07:36;37.08;;;13.02;;
52434;SDS011;38354;52.892;6.148;2023-02-11T10:11:20;30.40;;;12.07;;
52434;SDS011;38354;52.892;6.148;2023-02-11T10:21:39;27.90;;;11.10;;
52434;SDS011;38354;52.892;6.148;2023-02-11T10:24:20;26.25;;;11.50;;
52434;SDS011;38354;52.892;6.148;2023-02-11T10:26:46;25.67;;;12.23;;
52434;SDS011;38354;52.892;6.148;2023-02-11T10:29:25;31.77;;;12.02;;
52434;SDS011;38354;52.892;6.148;2023-02-11T10:31:55;23.80;;;10.25;;
52434;SDS011;38354;52.892;6.148;2023-02-11T10:34:22;25.88;;;10.57;;
52434;SDS011;38354;52.892;6.148;2023-02-11T10:36:47;25.27;;;10.52;;
52434;SDS011;38354;52.892;6.148;2023-02-11T10:39:18;23.85;;;10.50;;
52434;SDS011;38354;52.892;6.148;2023-02-11T10:41:47;23.50;;;10.82;;
52434;SDS011;38354;52.892;6.148;2023-02-11T10:44:27;22.60;;;10.43;;
52434;SDS011;38354;52.892;6.148;2023-02-11T10:47:04;21.77;;;10.23;;
52434;SDS011;38354;52.892;6.148;2023-02-11T10:52:46;20.90;;;9.38;;
52434;SDS011;38354;52.892;6.148;2023-02-11T11:00:32;17.20;;;8.95;;
52434;SDS011;38354;52.892;6.148;2023-02-11T11:03:01;19.85;;;9.25;;
52434;SDS011;38354;52.892;6.148;2023-02-11T11:05:30;22.45;;;8.95;;
52434;SDS011;38354;52.892;6.148;2023-02-11T11:08:03;19.25;;;8.70;;
52434;SDS011;38354;52.892;6.148;2023-02-11T11:13:27;23.65;;;8.25;;
52434;SDS011;38354;52.892;6.148;2023-02-11T11:18:38;17.90;;;7.15;;
52434;SDS011;38354;52.892;6.148;2023-02-11T11:21:34;20.17;;;7.60;;
52434;SDS011;38354;52.892;6.148;2023-02-11T11:24:05;15.05;;;6.13;;
52434;SDS011;38354;52.892;6.148;2023-02-11T11:26:53;18.95;;;6.72;;
52434;SDS011;38354;52.892;6.148;2023-02-11T11:29:21;19.67;;;8.63;;
52434;SDS011;38354;52.892;6.148;2023-02-11T11:32:13;14.98;;;6.65;;
52434;SDS011;38354;52.892;6.148;2023-02-11T11:34:47;18.67;;;6.80;;
52434;SDS011;38354;52.892;6.148;2023-02-11T11:37:22;21.63;;;6.95;;
52434;SDS011;38354;52.892;6.148;2023-02-11T11:40:49;15.57;;;7.78;;
52434;SDS011;38354;52.892;6.148;2023-02-11T11:45:38;16.70;;;6.22;;
52434;SDS011;38354;52.892;6.148;2023-02-11T11:48:36;14.32;;;5.78;;
52434;SDS011;38354;52.892;6.148;2023-02-11T11:51:05;15.35;;;6.68;;
52434;SDS011;38354;52.892;6.148;2023-02-11T11:56:27;16.80;;;6.28;;
52434;SDS011;38354;52.892;6.148;2023-02-11T11:58:59;14.88;;;5.90;;
52434;SDS011;38354;52.892;6.148;2023-02-11T12:01:40;18.48;;;5.53;;
52434;SDS011;38354;52.892;6.148;2023-02-11T12:15:40;20.60;;;5.50;;
52434;SDS011;38354;52.892;6.148;2023-02-11T12:44:24;14.10;;;4.18;;
52434;SDS011;38354;52.892;6.148;2023-02-11T12:50:04;16.52;;;4.40;;
52434;SDS011;38354;52.892;6.148;2023-02-11T12:55:56;15.32;;;4.53;;
52434;SDS011;38354;52.892;6.148;2023-02-11T12:58:27;17.55;;;4.18;;
52434;SDS011;38354;52.892;6.148;2023-02-11T13:01:00;14.55;;;4.22;;
52434;SDS011;38354;52.892;6.148;2023-02-11T13:04:40;13.82;;;3.25;;
52434;SDS011;38354;52.892;6.148;2023-02-11T13:06:49;13.27;;;3.60;;
52434;SDS011;38354;52.892;6.148;2023-02-11T13:09:21;16.23;;;3.70;;
52434;SDS011;38354;52.892;6.148;2023-02-11T13:11:53;13.73;;;4.40;;
52434;SDS011;38354;52.892;6.148;2023-02-11T13:14:28;12.20;;;3.65;;
52434;SDS011;38354;52.892;6.148;2023-02-11T13:16:56;16.52;;;3.53;;
52434;SDS011;38354;52.892;6.148;2023-02-11T13:35:29;11.40;;;3.67;;
52434;SDS011;38354;52.892;6.148;2023-02-11T13:37:58;10.80;;;3.40;;
52434;SDS011;38354;52.892;6.148;2023-02-11T13:40:26;12.43;;;3.33;;
52434;SDS011;38354;52.892;6.148;2023-02-11T13:43:03;13.50;;;3.78;;
52434;SDS011;38354;52.892;6.148;2023-02-11T13:48:16;11.73;;;3.58;;
52434;SDS011;38354;52.892;6.148;2023-02-11T13:51:09;12.63;;;3.80;;
52434;SDS011;38354;52.892;6.148;2023-02-11T13:53:45;11.63;;;3.70;;
52434;SDS011;38354;52.892;6.148;2023-02-11T13:56:35;14.40;;;3.38;;
52434;SDS011;38354;52.892;6.148;2023-02-11T13:59:43;18.38;;;4.47;;
52434;SDS011;38354;52.892;6.148;2023-02-11T14:02:04;18.45;;;3.92;;
52434;SDS011;38354;52.892;6.148;2023-02-11T14:10:58;14.27;;;5.00;;
52434;SDS011;38354;52.892;6.148;2023-02-11T14:29:21;13.25;;;4.22;;
52434;SDS011;38354;52.892;6.148;2023-02-11T14:32:27;12.27;;;3.40;;
52434;SDS011;38354;52.892;6.148;2023-02-11T14:38:11;14.98;;;3.13;;
52434;SDS011;38354;52.892;6.148;2023-02-11T14:43:32;17.50;;;4.07;;
52434;SDS011;38354;52.892;6.148;2023-02-11T14:46:02;15.80;;;4.35;;
52434;SDS011;38354;52.892;6.148;2023-02-11T14:48:35;12.10;;;3.60;;
52434;SDS011;38354;52.892;6.148;2023-02-11T14:51:10;9.15;;;3.15;;
52434;SDS011;38354;52.892;6.148;2023-02-11T14:53:44;15.82;;;3.47;;
52434;SDS011;38354;52.892;6.148;2023-02-11T14:56:17;11.70;;;3.22;;
52434;SDS011;38354;52.892;6.148;2023-02-11T14:58:48;10.43;;;3.70;;
52434;SDS011;38354;52.892;6.148;2023-02-11T15:01:34;15.07;;;3.40;;
52434;SDS011;38354;52.892;6.148;2023-02-11T15:04:05;14.07;;;3.03;;
52434;SDS011;38354;52.892;6.148;2023-02-11T15:06:46;12.82;;;3.75;;
52434;SDS011;38354;52.892;6.148;2023-02-11T15:09:16;16.02;;;3.72;;
52434;SDS011;38354;52.892;6.148;2023-02-11T15:11:48;15.63;;;4.07;;
52434;SDS011;38354;52.892;6.148;2023-02-11T15:14:21;27.05;;;5.20;;
52434;SDS011;38354;52.892;6.148;2023-02-11T15:16:48;23.70;;;3.88;;
52434;SDS011;38354;52.892;6.148;2023-02-11T15:19:22;13.95;;;3.35;;
52434;SDS011;38354;52.892;6.148;2023-02-11T15:21:49;12.30;;;2.80;;
52434;SDS011;38354;52.892;6.148;2023-02-11T15:26:58;13.50;;;4.07;;
52434;SDS011;38354;52.892;6.148;2023-02-11T15:29:35;12.48;;;4.00;;
52434;SDS011;38354;52.892;6.148;2023-02-11T15:32:05;14.15;;;4.97;;
52434;SDS011;38354;52.892;6.148;2023-02-11T15:34:34;11.05;;;3.20;;
52434;SDS011;38354;52.892;6.148;2023-02-11T15:37:02;12.82;;;3.60;;
52434;SDS011;38354;52.892;6.148;2023-02-11T15:39:40;15.95;;;4.75;;
52434;SDS011;38354;52.892;6.148;2023-02-11T15:44:46;16.80;;;3.42;;
52434;SDS011;38354;52.892;6.148;2023-02-11T15:47:18;16.75;;;3.40;;
52434;SDS011;38354;52.892;6.148;2023-02-11T15:49:45;13.55;;;4.10;;
52434;SDS011;38354;52.892;6.148;2023-02-11T15:52:12;16.00;;;3.58;;
52434;SDS011;38354;52.892;6.148;2023-02-11T15:54:39;11.10;;;3.00;;
52434;SDS011;38354;52.892;6.148;2023-02-11T15:57:09;14.73;;;3.17;;
52434;SDS011;38354;52.892;6.148;2023-02-11T15:59:39;12.75;;;3.78;;
52434;SDS011;38354;52.892;6.148;2023-02-11T16:02:22;11.02;;;3.33;;
52434;SDS011;38354;52.892;6.148;2023-02-11T16:04:56;15.65;;;3.70;;
52434;SDS011;38354;52.892;6.148;2023-02-11T16:07:43;16.48;;;3.80;;
52434;SDS011;38354;52.892;6.148;2023-02-11T16:10:33;15.55;;;3.50;;
52434;SDS011;38354;52.892;6.148;2023-02-11T16:13:16;13.88;;;2.85;;
52434;SDS011;38354;52.892;6.148;2023-02-11T16:20:51;17.17;;;3.00;;
52434;SDS011;38354;52.892;6.148;2023-02-11T16:23:21;15.90;;;4.60;;
52434;SDS011;38354;52.892;6.148;2023-02-11T16:28:44;17.23;;;3.85;;
52434;SDS011;38354;52.892;6.148;2023-02-11T16:31:10;12.63;;;3.35;;
52434;SDS011;38354;52.892;6.148;2023-02-11T16:33:35;13.73;;;2.90;;
52434;SDS011;38354;52.892;6.148;2023-02-11T16:36:05;17.45;;;3.70;;
52434;SDS011;38354;52.892;6.148;2023-02-11T16:38:38;16.10;;;3.35;;
52434;SDS011;38354;52.892;6.148;2023-02-11T16:41:03;12.20;;;3.45;;
52434;SDS011;38354;52.892;6.148;2023-02-11T16:43:29;14.15;;;3.70;;
52434;SDS011;38354;52.892;6.148;2023-02-11T16:45:56;17.75;;;3.88;;
52434;SDS011;38354;52.892;6.148;2023-02-11T16:48:22;16.58;;;4.60;;
52434;SDS011;38354;52.892;6.148;2023-02-11T16:50:48;20.42;;;4.72;;
52434;SDS011;38354;52.892;6.148;2023-02-11T16:53:16;19.10;;;6.90;;
52434;SDS011;38354;52.892;6.148;2023-02-11T16:55:45;13.63;;;3.63;;
52434;SDS011;38354;52.892;6.148;2023-02-11T16:58:11;12.75;;;3.33;;
52434;SDS011;38354;52.892;6.148;2023-02-11T17:00:37;18.23;;;3.08;;
52434;SDS011;38354;52.892;6.148;2023-02-11T17:03:06;27.63;;;4.43;;
52434;SDS011;38354;52.892;6.148;2023-02-11T17:05:32;13.50;;;3.10;;
52434;SDS011;38354;52.892;6.148;2023-02-11T17:07:59;19.90;;;3.40;;
52434;SDS011;38354;52.892;6.148;2023-02-11T17:10:26;21.63;;;4.97;;
52434;SDS011;38354;52.892;6.148;2023-02-11T17:12:52;14.15;;;4.88;;
52434;SDS011;38354;52.892;6.148;2023-02-11T17:15:18;17.95;;;5.15;;
52434;SDS011;38354;52.892;6.148;2023-02-11T17:17:44;17.75;;;5.43;;
52434;SDS011;38354;52.892;6.148;2023-02-11T17:20:10;16.63;;;5.35;;
52434;SDS011;38354;52.892;6.148;2023-02-11T17:22:37;17.90;;;5.53;;
52434;SDS011;38354;52.892;6.148;2023-02-11T17:25:03;18.73;;;3.78;;
52434;SDS011;38354;52.892;6.148;2023-02-11T17:27:29;16.90;;;4.60;;
52434;SDS011;38354;52.892;6.148;2023-02-11T17:29:54;17.45;;;4.68;;
52434;SDS011;38354;52.892;6.148;2023-02-11T17:32:20;17.13;;;3.72;;
52434;SDS011;38354;52.892;6.148;2023-02-11T17:34:46;14.60;;;4.30;;
52434;SDS011;38354;52.892;6.148;2023-02-11T17:37:11;16.08;;;4.55;;
52434;SDS011;38354;52.892;6.148;2023-02-11T17:39:37;15.27;;;4.13;;
52434;SDS011;38354;52.892;6.148;2023-02-11T17:42:04;21.70;;;3.83;;
52434;SDS011;38354;52.892;6.148;2023-02-11T17:44:30;13.90;;;3.70;;
52434;SDS011;38354;52.892;6.148;2023-02-11T17:46:56;22.17;;;4.57;;
52434;SDS011;38354;52.892;6.148;2023-02-11T17:49:22;20.50;;;4.35;;
52434;SDS011;38354;52.892;6.148;2023-02-11T17:51:48;15.15;;;3.85;;
52434;SDS011;38354;52.892;6.148;2023-02-11T17:54:14;16.75;;;4.32;;
52434;SDS011;38354;52.892;6.148;2023-02-11T17:56:42;16.80;;;5.20;;
52434;SDS011;38354;52.892;6.148;2023-02-11T17:59:08;14.38;;;4.32;;
52434;SDS011;38354;52.892;6.148;2023-02-11T18:01:37;13.93;;;4.25;;
52434;SDS011;38354;52.892;6.148;2023-02-11T18:04:04;14.70;;;3.97;;
52434;SDS011;38354;52.892;6.148;2023-02-11T18:06:31;13.27;;;3.20;;
52434;SDS011;38354;52.892;6.148;2023-02-11T18:08:58;16.48;;;3.75;;
52434;SDS011;38354;52.892;6.148;2023-02-11T18:11:26;16.33;;;4.50;;
52434;SDS011;38354;52.892;6.148;2023-02-11T18:13:54;19.10;;;4.97;;
52434;SDS011;38354;52.892;6.148;2023-02-11T18:16:22;17.65;;;4.68;;
52434;SDS011;38354;52.892;6.148;2023-02-11T18:18:49;16.58;;;5.60;;
52434;SDS011;38354;52.892;6.148;2023-02-11T18:21:16;15.57;;;4.68;;
52434;SDS011;38354;52.892;6.148;2023-02-11T18:23:42;20.88;;;5.45;;
52434;SDS011;38354;52.892;6.148;2023-02-11T18:26:08;16.80;;;5.40;;
52434;SDS011;38354;52.892;6.148;2023-02-11T18:28:36;19.73;;;5.32;;
52434;SDS011;38354;52.892;6.148;2023-02-11T18:31:03;16.10;;;3.85;;
52434;SDS011;38354;52.892;6.148;2023-02-11T18:33:29;14.65;;;5.00;;
52434;SDS011;38354;52.892;6.148;2023-02-11T18:35:55;12.57;;;4.80;;
52434;SDS011;38354;52.892;6.148;2023-02-11T18:38:21;10.35;;;4.82;;
52434;SDS011;38354;52.892;6.148;2023-02-11T18:40:47;17.42;;;4.78;;
52434;SDS011;38354;52.892;6.148;2023-02-11T18:43:17;21.75;;;5.78;;
52434;SDS011;38354;52.892;6.148;2023-02-11T18:45:45;15.35;;;4.65;;
52434;SDS011;38354;52.892;6.148;2023-02-11T18:48:13;18.83;;;5.13;;
52434;SDS011;38354;52.892;6.148;2023-02-11T18:50:41;22.25;;;5.88;;
52434;SDS011;38354;52.892;6.148;2023-02-11T18:53:08;18.73;;;4.68;;
52434;SDS011;38354;52.892;6.148;2023-02-11T18:55:39;16.27;;;4.63;;
52434;SDS011;38354;52.892;6.148;2023-02-11T18:58:05;18.52;;;5.20;;
52434;SDS011;38354;52.892;6.148;2023-02-11T19:00:31;16.25;;;5.88;;
52434;SDS011;38354;52.892;6.148;2023-02-11T19:02:57;17.08;;;5.80;;
52434;SDS011;38354;52.892;6.148;2023-02-11T19:05:23;13.38;;;4.68;;
52434;SDS011;38354;52.892;6.148;2023-02-11T19:07:52;20.33;;;4.80;;
52434;SDS011;38354;52.892;6.148;2023-02-11T19:10:20;16.08;;;4.63;;
52434;SDS011;38354;52.892;6.148;2023-02-11T19:12:45;15.13;;;5.10;;
52434;SDS011;38354;52.892;6.148;2023-02-11T19:15:11;17.23;;;6.05;;
52434;SDS011;38354;52.892;6.148;2023-02-11T19:17:38;16.95;;;6.03;;
52434;SDS011;38354;52.892;6.148;2023-02-11T19:20:04;19.45;;;5.25;;
52434;SDS011;38354;52.892;6.148;2023-02-11T19:22:30;17.60;;;5.55;;
52434;SDS011;38354;52.892;6.148;2023-02-11T19:24:56;23.88;;;7.10;;
52434;SDS011;38354;52.892;6.148;2023-02-11T19:27:22;21.05;;;5.88;;
52434;SDS011;38354;52.892;6.148;2023-02-11T19:29:47;15.80;;;5.72;;
52434;SDS011;38354;52.892;6.148;2023-02-11T19:32:13;18.90;;;5.80;;
52434;SDS011;38354;52.892;6.148;2023-02-11T19:34:40;19.98;;;5.93;;
52434;SDS011;38354;52.892;6.148;2023-02-11T19:37:06;18.60;;;6.07;;
52434;SDS011;38354;52.892;6.148;2023-02-11T19:39:34;19.83;;;5.72;;
52434;SDS011;38354;52.892;6.148;2023-02-11T19:42:00;16.45;;;5.47;;
52434;SDS011;38354;52.892;6.148;2023-02-11T19:44:26;19.05;;;5.25;;
52434;SDS011;38354;52.892;6.148;2023-02-11T19:46:52;21.20;;;6.60;;
52434;SDS011;38354;52.892;6.148;2023-02-11T19:49:18;19.92;;;6.30;;
52434;SDS011;38354;52.892;6.148;2023-02-11T19:51:52;20.27;;;5.95;;
52434;SDS011;38354;52.892;6.148;2023-02-11T19:54:19;17.65;;;5.18;;
52434;SDS011;38354;52.892;6.148;2023-02-11T19:56:46;20.67;;;6.13;;
52434;SDS011;38354;52.892;6.148;2023-02-11T19:59:13;17.05;;;5.93;;
52434;SDS011;38354;52.892;6.148;2023-02-11T20:01:39;16.65;;;6.35;;
52434;SDS011;38354;52.892;6.148;2023-02-11T20:04:06;17.02;;;7.88;;
52434;SDS011;38354;52.892;6.148;2023-02-11T20:06:32;27.23;;;7.05;;
52434;SDS011;38354;52.892;6.148;2023-02-11T20:08:59;26.05;;;8.88;;
52434;SDS011;38354;52.892;6.148;2023-02-11T20:11:28;23.52;;;7.45;;
52434;SDS011;38354;52.892;6.148;2023-02-11T20:13:55;22.17;;;7.00;;
52434;SDS011;38354;52.892;6.148;2023-02-11T20:16:22;22.48;;;7.40;;
52434;SDS011;38354;52.892;6.148;2023-02-11T20:18:49;24.42;;;8.25;;
52434;SDS011;38354;52.892;6.148;2023-02-11T20:21:16;32.63;;;10.18;;
52434;SDS011;38354;52.892;6.148;2023-02-11T20:23:43;23.58;;;9.82;;
52434;SDS011;38354;52.892;6.148;2023-02-11T20:26:14;27.88;;;9.57;;
52434;SDS011;38354;52.892;6.148;2023-02-11T20:28:40;24.88;;;9.32;;
52434;SDS011;38354;52.892;6.148;2023-02-11T20:31:06;28.13;;;9.88;;
52434;SDS011;38354;52.892;6.148;2023-02-11T20:33:34;32.30;;;10.50;;
52434;SDS011;38354;52.892;6.148;2023-02-11T20:36:02;24.85;;;11.52;;
52434;SDS011;38354;52.892;6.148;2023-02-11T20:38:30;29.85;;;10.93;;
52434;SDS011;38354;52.892;6.148;2023-02-11T20:41:00;25.60;;;9.65;;
52434;SDS011;38354;52.892;6.148;2023-02-11T20:43:28;28.05;;;8.65;;
52434;SDS011;38354;52.892;6.148;2023-02-11T20:45:53;22.52;;;7.97;;
52434;SDS011;38354;52.892;6.148;2023-02-11T20:48:19;17.63;;;7.97;;
52434;SDS011;38354;52.892;6.148;2023-02-11T20:50:45;23.25;;;7.55;;
52434;SDS011;38354;52.892;6.148;2023-02-11T20:53:11;33.17;;;8.43;;
52434;SDS011;38354;52.892;6.148;2023-02-11T20:55:37;21.83;;;7.55;;
52434;SDS011;38354;52.892;6.148;2023-02-11T20:58:04;19.23;;;8.63;;
52434;SDS011;38354;52.892;6.148;2023-02-11T21:00:31;27.33;;;8.77;;
52434;SDS011;38354;52.892;6.148;2023-02-11T21:02:57;27.40;;;9.25;;
52434;SDS011;38354;52.892;6.148;2023-02-11T21:05:24;31.02;;;10.30;;
52434;SDS011;38354;52.892;6.148;2023-02-11T21:07:49;29.70;;;9.38;;
52434;SDS011;38354;52.892;6.148;2023-02-11T21:10:16;22.17;;;8.00;;
52434;SDS011;38354;52.892;6.148;2023-02-11T21:12:42;27.15;;;9.32;;
52434;SDS011;38354;52.892;6.148;2023-02-11T21:15:08;22.17;;;8.45;;
52434;SDS011;38354;52.892;6.148;2023-02-11T21:17:36;27.63;;;9.23;;
52434;SDS011;38354;52.892;6.148;2023-02-11T21:20:01;25.10;;;9.18;;
52434;SDS011;38354;52.892;6.148;2023-02-11T21:22:28;28.35;;;9.40;;
52434;SDS011;38354;52.892;6.148;2023-02-11T21:24:53;32.53;;;11.32;;
52434;SDS011;38354;52.892;6.148;2023-02-11T21:27:19;29.60;;;11.25;;
52434;SDS011;38354;52.892;6.148;2023-02-11T21:29:45;35.33;;;11.45;;
52434;SDS011;38354;52.892;6.148;2023-02-11T21:32:10;25.52;;;10.90;;
52434;SDS011;38354;52.892;6.148;2023-02-11T21:34:36;29.08;;;10.60;;
52434;SDS011;38354;52.892;6.148;2023-02-11T21:37:02;33.03;;;10.60;;
52434;SDS011;38354;52.892;6.148;2023-02-11T21:39:27;30.60;;;11.27;;
52434;SDS011;38354;52.892;6.148;2023-02-11T21:41:53;26.98;;;10.68;;
52434;SDS011;38354;52.892;6.148;2023-02-11T21:44:20;26.35;;;10.90;;
52434;SDS011;38354;52.892;6.148;2023-02-11T21:46:46;34.88;;;11.63;;
52434;SDS011;38354;52.892;6.148;2023-02-11T21:49:11;32.22;;;11.73;;
52434;SDS011;38354;52.892;6.148;2023-02-11T21:51:37;27.45;;;11.95;;
52434;SDS011;38354;52.892;6.148;2023-02-11T21:54:03;40.05;;;13.32;;
52434;SDS011;38354;52.892;6.148;2023-02-11T21:56:30;33.25;;;13.32;;